Time;durP1;ratioP1;P1;durP2;ratioP2;P2;SDS_P1;SDS_P2;PMS_P1;PMS_P2;Temp;Humidity;BMP_temperature;BMP_pressure;BME280_temperature;BME280_humidity;BME280_pressure;Samples;Min_cycle;Max_cycle;Signal;HPM_P1;HPM_P2
2022/10/22 00:01:55;;;;;;;;;;;;;;;14.31;98.04;99552.94;5052845;28;20086;-83
2022/10/22 00:04:21;;;;;;;3.67;1.23;;;;;;;14.28;98.40;99550.16;5052299;28;20007;-83
2022/10/22 00:06:47;;;;;;;2.95;1.40;;;;;;;14.27;98.47;99548.56;5034391;28;20306;-83
2022/10/22 00:09:13;;;;;;;3.53;1.17;;;;;;;14.30;98.72;99551.38;5052173;28;20053;-84
2022/10/22 00:11:39;;;;;;;4.85;2.10;;;;;;;14.30;99.36;99553.31;5017499;28;20033;-83
2022/10/22 00:14:05;;;;;;;3.13;1.50;;;;;;;14.32;99.25;99556.47;5034451;28;20066;-83
2022/10/22 00:16:30;;;;;;;;;;;;;;;14.34;99.16;99562.34;5034968;28;20033;-84
2022/10/22 00:18:55;;;;;;;6.17;2.50;;;;;;;14.46;99.03;99559.41;5051945;28;19912;-83
2022/10/22 00:21:21;;;;;;;;;;;;;;;14.39;99.68;99562.00;5052795;28;20669;-84
2022/10/22 00:23:46;;;;;;;4.38;1.48;;;;;;;14.51;99.19;99567.28;5052250;28;19970;-83
2022/10/22 00:26:11;;;;;;;;;;;;;;;14.52;99.51;99568.06;5052564;28;20500;-83
2022/10/22 00:28:37;;;;;;;3.00;1.00;;;;;;;14.46;99.83;99575.06;5052201;28;20377;-83
2022/10/22 00:31:02;;;;;;;;;;;;;;;14.49;99.62;99569.59;5052643;28;20324;-83
2022/10/22 00:33:28;;;;;;;3.40;1.30;;;;;;;14.52;99.75;99568.84;5052443;28;20294;-83
2022/10/22 00:35:54;;;;;;;4.75;1.50;;;;;;;14.65;99.23;99578.41;5052148;28;20021;-82
2022/10/22 00:38:19;;;;;;;12.20;1.77;;;;;;;14.67;99.24;99578.81;5052116;28;20060;-82
2022/10/22 00:40:50;;;;;;;;;;;;;;;14.58;100.00;99572.84;5052316;28;20044;-85
2022/10/22 00:43:18;;;;;;;5.80;1.63;;;;;;;14.56;100.00;99569.69;5034216;28;19909;-84
2022/10/22 00:45:45;;;;;;;3.20;1.50;;;;;;;14.54;100.00;99565.75;5051942;28;20120;-84
2022/10/22 00:48:16;;;;;;;4.22;1.70;;;;;;;14.52;100.00;99568.84;5051629;28;20033;-84
2022/10/22 00:50:51;;;;;;;3.05;1.20;;;;;;;14.56;100.00;99568.91;5052076;28;20109;-83
2022/10/22 00:53:23;;;;;;;3.08;1.45;;;;;;;14.81;99.45;99563.69;5034195;28;20059;-84
2022/10/22 00:55:52;;;;;;;5.53;1.50;;;;;;;14.67;100.00;99564.31;5051721;28;20481;-83
2022/10/22 00:58:22;;;;;;;4.15;1.50;;;;;;;14.62;100.00;99562.72;5051984;28;20055;-84
2022/10/22 01:00:47;;;;;;;3.35;1.40;;;;;;;14.64;100.00;99559.59;5054314;28;20111;-84
2022/10/22 01:03:13;;;;;;;2.97;1.20;;;;;;;14.69;99.80;99554.56;5037691;28;20481;-83
2022/10/22 01:05:41;;;;;;;;;;;;;;;14.64;100.00;99546.69;5037966;28;20035;-84
2022/10/22 01:08:17;;;;;;;3.72;1.50;;;;;;;14.81;99.19;99563.69;5055480;28;19916;-82
2022/10/22 01:10:55;;;;;;;5.35;1.38;;;;;;;14.72;99.75;99559.28;5055328;28;20033;-84
2022/10/22 01:13:35;;;;;;;3.42;1.15;;;;;;;14.76;99.64;99562.06;5055422;28;20025;-83
2022/10/22 01:16:26;;;;;;;5.82;1.60;;;;;;;14.65;100.00;99556.50;5055768;28;20050;-84
2022/10/22 01:19:15;;;;;;;3.92;1.40;;;;;;;14.71;100.00;99546.75;5035753;28;20024;-84
2022/10/22 01:21:49;;;;;;;6.40;2.00;;;;;;;14.73;99.78;99551.84;5055673;28;20039;-84
2022/10/22 01:24:41;;;;;;;4.38;1.38;;;;;;;14.63;100.00;99542.38;5055157;28;20060;-84
2022/10/22 01:27:29;;;;;;;5.47;1.85;;;;;;;14.59;100.00;99544.28;5037274;28;20188;-82
2022/10/22 01:30:05;;;;;;;4.22;1.60;;;;;;;14.57;100.00;99543.84;5055067;28;20035;-83
2022/10/22 01:32:38;;;;;;;7.22;1.90;;;;;;;14.65;100.00;99540.03;5054976;28;20025;-82
2022/10/22 01:35:08;;;;;;;4.40;1.23;;;;;;;14.67;100.00;99529.50;5055021;28;20037;-81
2022/10/22 01:37:44;;;;;;;5.93;1.65;;;;;;;14.66;100.00;99540.84;5054786;28;20067;-82
2022/10/22 01:40:12;;;;;;;4.25;1.27;;;;;;;14.65;100.00;99534.56;5036762;28;20428;-82
2022/10/22 01:42:38;;;;;;;3.70;1.55;;;;;;;14.63;100.00;99533.38;5036814;28;20470;-84
2022/10/22 01:45:11;;;;;;;4.70;1.73;;;;;;;14.63;100.00;99533.38;5037452;28;20032;-83
2022/10/22 01:47:52;;;;;;;3.80;1.83;;;;;;;14.68;100.00;99533.81;5054633;28;20063;-83
2022/10/22 01:50:31;;;;;;;4.20;1.65;;;;;;;14.64;100.00;99533.00;5036859;28;20028;-83
2022/10/22 01:53:05;;;;;;;3.58;1.60;;;;;;;14.66;100.00;99541.63;5054785;28;20033;-83
2022/10/22 01:55:39;;;;;;;4.13;1.83;;;;;;;14.68;100.00;99525.59;5054796;28;20386;-84
2022/10/22 01:58:10;;;;;;;5.18;1.92;;;;;;;14.74;100.00;99532.28;5054625;28;20021;-84
2022/10/22 02:00:44;;;;;;;3.92;1.30;;;;;;;14.62;100.00;99529.06;5054899;28;20036;-85
2022/10/22 02:03:19;;;;;;;6.53;2.03;;;;;;;14.57;100.00;99532.91;5054822;28;20028;-85
2022/10/22 02:05:51;;;;;;;5.63;1.77;;;;;;;14.57;100.00;99527.41;5054561;28;20025;-84
2022/10/22 02:08:22;;;;;;;3.88;1.73;;;;;;;14.57;100.00;99521.94;5054459;28;20094;-84
2022/10/22 02:10:49;;;;;;;3.97;1.63;;;;;;;14.55;100.00;99523.47;5054138;28;20048;-85
2022/10/22 02:13:20;;;;;;;4.35;1.80;;;;;;;14.55;100.00;99520.75;5036743;28;20501;-84
2022/10/22 02:15:47;;;;;;;4.95;1.65;;;;;;;14.68;100.00;99517.38;5054255;28;20024;-85
2022/10/22 02:18:14;;;;;;;4.53;1.52;;;;;;;14.60;100.00;99526.66;5054654;28;20042;-84
2022/10/22 02:20:41;;;;;;;4.10;1.55;;;;;;;14.69;100.00;99524.44;5036263;28;20021;-86
2022/10/22 02:23:07;;;;;;;4.82;1.65;;;;;;;14.58;100.00;99529.00;5054457;28;20453;-83
2022/10/22 02:25:36;;;;;;;6.18;1.58;;;;;;;14.58;100.00;99528.22;5036110;28;20021;-83
2022/10/22 02:28:35;;;;;;;9.02;2.13;;;;;;;14.57;100.00;99527.41;5054155;28;20052;-84
2022/10/22 02:31:12;;;;;;;5.28;2.33;;;;;;;14.54;100.00;99528.19;5054205;28;20032;-82
2022/10/22 02:33:44;;;;;;;3.90;1.73;;;;;;;14.65;100.00;99526.34;5054421;28;20024;-83
2022/10/22 02:36:10;;;;;;;3.38;1.67;;;;;;;14.58;100.00;99531.72;5020398;28;20040;-83
2022/10/22 02:38:36;;;;;;;3.55;1.52;;;;;;;14.61;100.00;99533.75;5054537;28;20494;-83
2022/10/22 02:41:02;;;;;;;5.15;1.58;;;;;;;14.52;100.00;99530.50;5054098;28;20136;-83
2022/10/22 02:43:28;;;;;;;6.50;1.80;;;;;;;14.47;100.00;99536.31;5036043;28;20029;-83
2022/10/22 02:45:54;;;;;;;4.72;2.47;;;;;;;14.52;100.00;99533.25;5036342;28;20040;-82
2022/10/22 02:48:19;;;;;;;;;;;;;;;14.48;100.00;99537.91;5036790;28;20021;-82
2022/10/22 02:50:44;;;;;;;4.53;1.73;;;;;;;14.45;100.00;99541.41;5054233;28;20015;-84
2022/10/22 02:53:10;;;;;;;;;;;;;;;14.42;100.00;99547.56;5035993;28;20028;-85
2022/10/22 02:55:35;;;;;;;4.73;1.53;;;;;;;14.45;100.00;99541.41;5053836;28;19909;-83
2022/10/22 02:58:00;;;;;;;5.25;2.00;;;;;;;14.49;100.00;99542.22;5053431;28;20325;-83
2022/10/22 03:00:26;;;;;;;;;;;;;;;14.42;100.00;99542.09;5053787;28;20415;-85
2022/10/22 03:02:51;;;;;;;5.47;2.63;;;;;;;14.38;100.00;99542.06;5053582;28;19979;-83
2022/10/22 03:05:17;;;;;;;3.30;1.60;;;;;;;14.40;100.00;99555.38;5053289;28;20260;-86
2022/10/22 03:07:44;;;;;;;6.82;2.67;;;;;;;14.37;100.00;99547.91;5035530;28;20056;-85
2022/10/22 03:10:09;;;;;;;;;;;;;;;14.33;100.00;99545.13;5053895;28;20040;-85
2022/10/22 03:12:35;;;;;;;4.80;1.88;;;;;;;14.34;100.00;99551.41;5053593;28;19909;-84
2022/10/22 03:15:00;;;;;;;;;;;;;;;14.38;100.00;99541.28;5053809;28;20032;-87
2022/10/22 03:17:25;;;;;;;6.55;1.88;;;;;;;14.39;100.00;99551.06;5053160;28;20429;-85
2022/10/22 03:19:50;;;;;;;;;;;;;;;14.54;100.00;99552.03;5053702;28;20063;-83
2022/10/22 03:22:21;;;;;;;5.50;2.03;;;;;;;14.49;100.00;99547.69;5034839;28;19916;-83
2022/10/22 03:24:49;;;;;;;4.25;2.10;;;;;;;14.39;100.00;99551.06;5052821;28;20260;-85
2022/10/22 03:27:17;;;;;;;5.72;2.17;;;;;;;14.48;100.00;99548.88;5035010;28;20489;-84
2022/10/22 03:29:43;;;;;;;4.03;1.90;;;;;;;14.38;100.00;99538.53;5034999;28;20025;-82
2022/10/22 03:32:08;;;;;;;5.32;2.22;;;;;;;14.37;100.00;99547.91;5052906;28;20035;-85
2022/10/22 03:34:34;;;;;;;6.65;2.20;;;;;;;14.53;100.00;99556.75;5053223;28;20100;-85
2022/10/22 03:37:00;;;;;;;;;;;;;;;14.42;100.00;99553.03;5053132;28;20489;-87
2022/10/22 03:39:28;;;;;;;7.32;2.35;;;;;;;14.36;100.00;99560.03;5052687;28;19924;-86
2022/10/22 03:41:53;;;;;;;6.00;2.00;;;;;;;14.29;100.00;99562.69;5053115;28;20035;-85
2022/10/22 03:44:20;;;;;;;7.70;2.65;;;;;;;14.28;100.00;99567.38;5034798;28;20112;-85
2022/10/22 03:46:45;;;;;;;4.85;1.98;;;;;;;14.17;100.00;99568.41;5052608;28;20103;-84
2022/10/22 03:49:10;;;;;;;4.97;2.00;;;;;;;14.09;100.00;99568.28;5052674;28;20453;-84
2022/10/22 03:51:36;;;;;;;5.60;1.95;;;;;;;14.19;100.00;99579.75;5052348;28;20257;-83
2022/10/22 03:54:01;;;;;;;;;;;;;;;14.28;100.00;99577.53;5052629;28;20115;-86
2022/10/22 03:56:27;;;;;;;5.72;2.55;;;;;;;14.22;100.00;99581.75;5052606;28;20354;-85
2022/10/22 03:58:54;;;;;;;;;;;;;;;14.27;100.00;99578.69;5052784;28;20385;-87
2022/10/22 04:01:19;;;;;;;4.63;2.42;;;;;;;14.18;100.00;99586.41;5034503;28;19951;-85
2022/10/22 04:03:45;;;;;;;;;;;;;;;14.15;100.00;99577.00;5052924;28;20057;-85
2022/10/22 04:06:12;;;;;;;4.93;1.80;;;;;;;14.38;100.00;99587.81;5034414;28;20350;-84
2022/10/22 04:08:38;;;;;;;5.10;1.92;;;;;;;14.39;100.00;99581.19;5034668;28;20272;-82
2022/10/22 04:11:04;;;;;;;4.13;2.00;;;;;;;14.21;100.00;99583.69;5051972;28;20393;-85
2022/10/22 04:13:30;;;;;;;8.05;3.38;;;;;;;14.11;100.00;99582.41;5052634;28;20024;-84
2022/10/22 04:15:55;;;;;;;;;;;;;;;14.06;100.00;99590.94;5034456;28;20500;-86
2022/10/22 04:18:22;;;;;;;7.93;2.53;;;;;;;14.04;100.00;99587.78;5052065;28;19940;-84
2022/10/22 04:20:47;;;;;;;4.32;1.85;;;;;;;14.06;100.00;99590.94;5052363;28;20288;-84
2022/10/22 04:23:13;;;;;;;5.78;2.30;;;;;;;14.11;100.00;99587.91;5052308;28;20048;-85
2022/10/22 04:25:39;;;;;;;9.05;2.13;;;;;;;14.24;100.00;99595.84;5052332;28;20029;-83
2022/10/22 04:28:08;;;;;;;;;;;;;;;14.22;100.00;99598.19;5052870;28;20036;-84
2022/10/22 04:30:34;;;;;;;3.97;1.95;;;;;;;14.15;100.00;99591.47;5034618;28;20039;-84
2022/10/22 04:33:01;;;;;;;;;;;;;;;14.12;100.00;99602.38;5052648;28;20087;-84
2022/10/22 04:35:26;;;;;;;6.07;2.20;;;;;;;14.05;100.00;99594.84;5055545;28;19917;-83
2022/10/22 04:37:53;;;;;;;;;;;;;;;14.05;100.00;99594.84;5056160;28;20055;-85
2022/10/22 04:40:18;;;;;;;4.93;2.20;;;;;;;14.01;100.00;99591.28;5037700;28;19912;-83
2022/10/22 04:42:44;;;;;;;5.43;2.03;;;;;;;14.03;100.00;99597.16;5055769;28;20262;-83
2022/10/22 04:45:09;;;;;;;;;;;;;;;14.09;100.00;99598.41;5055999;28;20035;-84
2022/10/22 04:47:35;;;;;;;4.85;2.13;;;;;;;14.06;100.00;99596.41;5056279;28;19963;-83
2022/10/22 04:50:00;;;;;;;4.93;2.00;;;;;;;14.04;100.00;99596.00;5038110;28;20053;-84
2022/10/22 04:52:25;;;;;;;;;;;;;;;14.13;100.00;99609.44;5055940;28;20404;-84
2022/10/22 04:54:50;;;;;;;6.87;2.20;;;;;;;14.10;100.00;99608.19;5055721;28;19908;-83
2022/10/22 04:57:16;;;;;;;6.10;2.28;;;;;;;14.17;100.00;99609.47;5037847;28;20267;-84
2022/10/22 04:59:41;;;;;;;;;;;;;;;14.23;100.00;99611.50;5056353;28;20466;-84
2022/10/22 05:02:06;;;;;;;6.30;2.80;;;;;;;14.19;100.00;99605.19;5055279;28;20432;-84
2022/10/22 05:04:31;;;;;;;;;;;;;;;14.18;100.00;99609.09;5056021;28;20025;-85
2022/10/22 05:06:57;;;;;;;4.47;2.08;;;;;;;14.21;100.00;99619.31;5055719;28;20277;-82
2022/10/22 05:09:22;;;;;;;;;;;;;;;14.26;100.00;99615.44;5055724;28;20033;-83
2022/10/22 05:11:50;;;;;;;5.05;2.45;;;;;;;14.22;100.00;99618.13;5055332;28;19925;-83
2022/10/22 05:14:18;;;;;;;6.25;2.95;;;;;;;14.18;100.00;99622.00;5037559;28;20466;-83
2022/10/22 05:16:46;;;;;;;5.68;2.40;;;;;;;14.15;100.00;99629.78;5055314;28;20033;-86
2022/10/22 05:19:25;;;;;;;9.00;2.97;;;;;;;14.14;100.00;99625.47;5055315;28;20021;-85
2022/10/22 05:21:52;;;;;;;4.82;2.10;;;;;;;14.10;100.00;99624.63;5056145;28;20342;-86
2022/10/22 05:24:17;;;;;;;5.00;2.40;;;;;;;14.09;100.00;99623.03;5057256;28;20027;-85
2022/10/22 05:26:43;;;;;;;7.38;2.10;;;;;;;14.08;100.00;99626.94;5038967;28;20127;-86
2022/10/22 05:29:09;;;;;;;5.03;2.22;;;;;;;14.04;100.00;99623.38;5057236;28;20028;-86
2022/10/22 05:31:34;;;;;;;;;;;;;;;14.04;100.00;99641.75;5058456;28;20025;-87
2022/10/22 05:34:00;;;;;;;4.30;2.05;;;;;;;14.03;100.00;99634.69;5057899;28;20422;-86
2022/10/22 05:36:26;;;;;;;5.70;2.97;;;;;;;14.02;100.00;99644.84;5057515;28;20104;-85
2022/10/22 05:38:51;;;;;;;;;;;;;;;14.02;100.00;99644.06;5057245;28;20421;-87
2022/10/22 05:41:19;;;;;;;5.57;2.20;;;;;;;14.02;100.00;99642.13;5057367;28;19909;-87
2022/10/22 05:43:45;;;;;;;6.85;2.38;;;;;;;13.97;100.00;99641.66;5057105;28;20050;-86
2022/10/22 05:46:16;;;;;;;7.40;2.38;;;;;;;13.95;100.00;99636.56;5055644;28;20040;-86
2022/10/22 05:48:43;;;;;;;7.45;2.50;;;;;;;13.93;100.00;99649.78;5039349;28;20054;-86
2022/10/22 05:51:11;;;;;;;5.68;1.88;;;;;;;13.93;100.00;99643.53;5038941;28;20017;-85
2022/10/22 05:53:40;;;;;;;5.78;2.28;;;;;;;13.94;100.00;99647.84;5038832;28;20048;-82
2022/10/22 05:56:10;;;;;;;4.43;2.13;;;;;;;13.93;100.00;99649.78;5057263;28;20029;-91
2022/10/22 05:58:41;;;;;;;6.95;2.53;;;;;;;13.98;100.00;99649.50;5040684;28;20120;-92
2022/10/22 06:01:19;;;;;;;4.55;2.10;;;;;;;13.99;100.00;99644.81;5041139;28;20032;-89
2022/10/22 06:03:46;;;;;;;6.22;2.70;;;;;;;13.96;100.00;99651.81;5054966;28;20025;-90
2022/10/22 06:06:39;;;;;;;6.30;2.35;;;;;;;14.01;100.00;99651.50;5055777;28;20025;-84
2022/10/22 06:09:14;;;;;;;4.57;2.33;;;;;;;13.95;100.00;99661.19;5050545;28;20502;-86
2022/10/22 06:11:39;;;;;;;5.30;2.22;;;;;;;13.95;100.00;99663.13;5037009;28;20028;-88
2022/10/22 06:14:04;;;;;;;4.25;1.98;;;;;;;13.96;100.00;99662.75;5054678;28;20081;-89
2022/10/22 06:16:31;;;;;;;5.90;2.17;;;;;;;13.93;100.00;99674.41;5054775;28;20028;-89
2022/10/22 06:19:00;;;;;;;7.68;2.38;;;;;;;13.90;100.00;99669.69;5054165;28;20770;-89
2022/10/22 06:21:27;;;;;;;5.45;2.05;;;;;;;13.90;100.00;99671.63;5054438;28;20025;-90
2022/10/22 06:23:55;;;;;;;5.68;2.30;;;;;;;13.93;100.00;99674.41;5020156;28;20064;-89
2022/10/22 06:26:20;;;;;;;7.70;2.42;;;;;;;13.92;100.00;99686.53;5054544;28;20094;-89
2022/10/22 06:28:46;;;;;;;4.78;2.25;;;;;;;13.86;100.00;99682.53;5054296;28;20025;-89
2022/10/22 06:31:13;;;;;;;5.63;2.53;;;;;;;13.85;100.00;99689.16;5036371;28;20117;-87
2022/10/22 06:33:42;;;;;;;5.88;2.90;;;;;;;13.83;100.00;99692.28;5036477;28;20107;-87
2022/10/22 06:36:10;;;;;;;6.97;2.60;;;;;;;13.81;100.00;99699.28;5054330;28;20029;-91
2022/10/22 06:38:37;;;;;;;4.38;2.10;;;;;;;13.86;100.00;99701.69;5053821;28;20049;-88
2022/10/22 06:41:15;;;;;;;7.45;2.58;;;;;;;13.84;100.00;99701.28;5054822;28;20036;-86
2022/10/22 06:43:44;;;;;;;6.07;2.15;;;;;;;13.85;100.00;99709.09;5056045;28;20133;-90
2022/10/22 06:46:10;;;;;;;6.78;2.22;;;;;;;13.90;100.00;99709.94;5055984;28;20020;-85
2022/10/22 06:48:37;;;;;;;5.32;2.08;;;;;;;13.94;100.00;99719.81;5054994;28;20071;-89
2022/10/22 06:51:08;;;;;;;7.55;2.30;;;;;;;13.90;100.00;99718.94;5054160;28;20032;-88
2022/10/22 06:53:34;;;;;;;5.45;1.92;;;;;;;13.92;100.00;99727.59;5019084;28;20040;-91
2022/10/22 06:56:08;;;;;;;4.40;2.03;;;;;;;13.89;100.00;99736.53;5060929;28;20032;-89
2022/10/22 06:58:34;;;;;;;8.75;2.40;;;;;;;13.86;100.00;99734.53;5042361;28;20060;-91
2022/10/22 07:01:14;;;;;;;6.45;2.13;;;;;;;13.94;100.00;99744.47;5061396;28;20120;-90
2022/10/22 07:03:40;;;;;;;5.72;1.90;;;;;;;13.90;100.00;99746.31;5066067;28;20047;-88
2022/10/22 07:06:12;;;;;;;6.03;1.92;;;;;;;13.86;100.00;99748.22;5043472;28;20021;-87
2022/10/22 07:08:39;;;;;;;6.43;2.60;;;;;;;13.87;100.00;99746.25;5058221;28;20032;-88
2022/10/22 07:11:11;;;;;;;4.60;2.10;;;;;;;13.87;100.00;99746.25;5039818;28;20396;-88
2022/10/22 07:13:37;;;;;;;4.57;2.03;;;;;;;13.89;100.00;99754.91;5059650;28;20032;-89
2022/10/22 07:16:04;;;;;;;7.82;2.22;;;;;;;13.93;100.00;99751.06;5053648;28;20037;-88
2022/10/22 07:18:30;;;;;;;4.47;1.95;;;;;;;13.98;100.00;99758.97;5053759;28;20090;-89
2022/10/22 07:20:55;;;;;;;5.75;2.25;;;;;;;14.00;100.00;99756.66;5019173;28;20470;-89
2022/10/22 07:23:21;;;;;;;;;;;;;;;14.02;100.00;99759.81;5054149;28;20082;-86
2022/10/22 07:25:46;;;;;;;7.70;2.20;;;;;;;14.08;100.00;99763.03;5035844;28;19970;-87
2022/10/22 07:28:12;;;;;;;;;;;;;;;14.18;100.00;99764.38;5054342;28;20500;-88
2022/10/22 07:30:39;;;;;;;6.20;1.88;;;;;;;14.22;100.00;99765.22;5035411;28;19979;-88
2022/10/22 07:33:04;;;;;;;4.90;1.92;;;;;;;14.30;99.71;99767.72;5053443;28;20040;-88
2022/10/22 07:35:30;;;;;;;7.10;1.88;;;;;;;14.41;98.73;99763.16;5053773;28;20055;-88
2022/10/22 07:37:56;;;;;;;;;;;;;;;14.52;97.76;99766.09;5040800;28;20048;-88
2022/10/22 07:40:21;;;;;;;5.10;1.60;;;;;;;14.62;96.76;99776.44;5053897;28;19913;-89
2022/10/22 07:42:46;;;;;;;;;;;;;;;14.77;95.96;99782.09;5052758;28;20033;-88
2022/10/22 07:45:12;;;;;;;4.72;1.70;;;;;;;14.82;95.31;99781.78;5052714;28;19992;-87
2022/10/22 07:47:37;;;;;;;;;;;;;;;14.90;93.22;99786.19;5052460;28;20418;-86
2022/10/22 07:50:06;;;;;;;4.35;1.15;;;;;;;14.94;93.27;99782.31;5051968;28;20104;-89
2022/10/22 07:52:32;;;;;;;4.10;1.45;;;;;;;14.95;93.64;99788.63;5035732;28;20047;-89
2022/10/22 07:54:57;;;;;;;7.43;1.30;;;;;;;14.90;92.95;99775.22;5053464;28;20041;-90
2022/10/22 07:57:23;;;;;;;3.88;1.02;;;;;;;14.92;92.92;99792.09;5053182;28;20037;-90
2022/10/22 07:59:48;;;;;;;;;;;;;;;14.93;93.11;99793.66;5053781;28;20025;-91
2022/10/22 08:02:15;;;;;;;4.63;1.52;;;;;;;14.96;92.76;99795.69;5055108;28;20680;-88
2022/10/22 08:04:46;;;;;;;4.00;1.30;;;;;;;15.04;92.69;99802.84;5053645;28;20070;-90
2022/10/22 08:07:12;;;;;;;6.90;1.65;;;;;;;15.20;91.95;99802.66;5053988;28;20095;-90
2022/10/22 08:09:37;;;;;;;;;;;;;;;15.19;90.93;99810.09;5051875;28;20493;-88
2022/10/22 08:12:03;;;;;;;3.43;1.30;;;;;;;15.23;90.60;99810.13;5053986;28;19935;-89
2022/10/22 08:14:28;;;;;;;;;;;;;;;15.28;90.82;99818.00;5052865;28;20020;-87
2022/10/22 08:16:53;;;;;;;5.57;1.30;;;;;;;15.26;90.60;99821.13;5051827;28;19908;-88
2022/10/22 08:19:20;;;;;;;;;;;;;;;15.29;90.70;99825.09;5055931;28;20086;-88
2022/10/22 08:21:46;;;;;;;5.82;1.77;;;;;;;15.29;90.61;99814.91;5054910;28;19908;-89
2022/10/22 08:24:13;;;;;;;2.83;1.08;;;;;;;15.27;90.02;99830.16;5039340;28;20029;-91
2022/10/22 08:26:38;;;;;;;3.90;1.42;;;;;;;15.24;90.20;99833.63;5056262;28;20047;-90
2022/10/22 08:29:04;;;;;;;;;;;;;;;15.28;89.98;99828.97;5056348;28;20025;-90
2022/10/22 08:31:30;;;;;;;6.68;1.75;;;;;;;15.26;89.83;99834.84;5057142;28;19958;-92
2022/10/22 08:33:56;;;;;;;3.90;1.33;;;;;;;15.20;89.51;99838.28;5039090;28;20477;-91
2022/10/22 08:36:21;;;;;;;;;;;;;;;15.19;89.21;99842.19;5056300;28;20017;-92
2022/10/22 08:38:47;;;;;;;3.55;1.20;;;;;;;15.14;88.61;99851.56;5053748;28;19917;-86
2022/10/22 08:41:18;;;;;;;;;;;;;;;15.12;88.79;99850.34;5055407;28;20044;-88
2022/10/22 08:44:27;;;;;;;4.38;0.90;;;;;;;15.09;88.58;99860.09;5053110;28;19912;-85
2022/10/22 08:47:45;;;;;;;5.22;1.08;;;;;;;15.01;88.12;99864.69;5021163;28;20069;-85
2022/10/22 08:50:18;;;;;;;3.88;1.75;;;;;;;15.01;88.25;99861.16;5018121;28;20427;-86
2022/10/22 08:52:50;;;;;;;6.88;1.73;;;;;;;14.97;88.60;99863.06;5003732;28;20074;-85
2022/10/22 08:55:18;;;;;;;8.57;1.98;;;;;;;14.98;88.60;99864.66;5040360;28;20037;-86
2022/10/22 08:57:50;;;;;;;2.95;1.00;;;;;;;15.03;88.77;99869.81;5054253;28;20028;-86
2022/10/22 09:00:38;;;;;;;2.45;1.00;;;;;;;15.06;88.54;99869.06;5052573;28;20040;-83
2022/10/22 09:03:13;;;;;;;4.25;1.33;;;;;;;15.12;88.71;99883.25;5051006;28;20049;-85
2022/10/22 09:05:49;;;;;;;3.08;1.02;;;;;;;15.08;88.08;99874.16;5052484;28;20063;-83
2022/10/22 09:08:17;;;;;;;3.65;1.05;;;;;;;15.08;88.18;99869.47;5051914;28;20078;-84
2022/10/22 09:10:48;;;;;;;3.85;1.10;;;;;;;15.12;88.32;99875.81;5051890;28;20055;-84
2022/10/22 09:13:25;;;;;;;4.82;0.98;;;;;;;15.11;87.94;99881.66;5051718;28;20037;-83
2022/10/22 09:16:00;;;;;;;5.28;1.33;;;;;;;15.14;88.26;99884.47;5052448;28;20017;-83
2022/10/22 09:18:37;;;;;;;4.65;1.52;;;;;;;15.13;88.50;99888.38;5050747;28;20033;-83
2022/10/22 09:21:33;;;;;;;4.95;1.13;;;;;;;15.20;88.31;99893.94;5050842;28;20025;-83
2022/10/22 09:24:24;;;;;;;3.45;1.15;;;;;;;15.22;88.34;99888.06;5053556;28;20033;-84
2022/10/22 09:26:50;;;;;;;4.90;1.00;;;;;;;15.29;88.23;99891.72;5055053;28;20032;-83
2022/10/22 09:29:23;;;;;;;;;;;;;;;15.30;87.50;99890.56;5055263;28;20028;-83
2022/10/22 09:31:48;;;;;;;3.90;0.98;;;;;;;15.26;88.23;99895.19;5054049;28;19915;-84
2022/10/22 09:34:14;;;;;;;;;;;;;;;15.29;87.86;99894.47;5055620;28;20029;-84
2022/10/22 09:36:39;;;;;;;3.50;1.33;;;;;;;15.35;87.26;99895.72;5055730;28;20400;-85
2022/10/22 09:39:20;;;;;;;;;;;;;;;15.33;87.17;99910.97;5055550;28;20048;-82
2022/10/22 09:41:46;;;;;;;5.53;1.05;;;;;;;15.27;87.72;99909.69;5055778;28;19947;-83
2022/10/22 09:44:11;;;;;;;;;;;;;;;15.30;87.61;99909.75;5037549;28;20021;-85
2022/10/22 09:46:44;;;;;;;4.55;1.13;;;;;;;15.19;87.19;99908.81;5021932;28;19958;-85
2022/10/22 09:49:13;;;;;;;3.95;1.75;;;;;;;15.17;88.01;99905.66;5056073;28;20485;-86
2022/10/22 09:52:25;;;;;;;4.63;1.10;;;;;;;15.16;88.17;99917.78;5037362;28;20029;-87
2022/10/22 09:54:53;;;;;;;3.85;1.23;;;;;;;15.16;87.57;99908.78;5011677;28;20033;-86
2022/10/22 09:57:21;;;;;;;4.20;1.30;;;;;;;15.17;87.56;99924.06;5037161;28;20119;-89
2022/10/22 09:59:49;;;;;;;6.63;1.73;;;;;;;15.15;87.11;99926.38;5038497;28;20017;-86
2022/10/22 10:02:20;;;;;;;5.60;1.10;;;;;;;15.11;87.57;99929.06;5037575;28;20431;-87
2022/10/22 10:04:54;;;;;;;4.18;1.40;;;;;;;15.13;88.21;99924.00;5055095;28;20021;-83
2022/10/22 10:07:30;;;;;;;2.90;0.95;;;;;;;15.15;87.96;99934.63;5036519;28;20028;-83
2022/10/22 10:09:57;;;;;;;4.97;1.13;;;;;;;15.17;87.77;99927.59;5053991;28;20054;-83
2022/10/22 10:12:45;;;;;;;2.45;0.90;;;;;;;15.21;87.40;99928.44;5037180;28;20375;-84
2022/10/22 10:15:55;;;;;;;5.65;1.15;;;;;;;15.26;86.46;99941.03;5054454;28;20029;-83
2022/10/22 10:18:51;;;;;;;3.10;1.10;;;;;;;15.30;85.97;99948.16;4973141;28;20041;-85
2022/10/22 10:21:38;;;;;;;5.35;0.90;;;;;;;15.21;86.32;99936.66;4943867;28;20034;-85
2022/10/22 10:24:34;;;;;;;3.17;1.23;;;;;;;15.30;86.57;99948.16;5040443;28;20036;-84
2022/10/22 10:27:25;;;;;;;3.78;1.00;;;;;;;15.23;86.36;99959.00;5057103;28;20163;-83
2022/10/22 10:29:59;;;;;;;5.28;1.23;;;;;;;15.24;86.60;99954.31;5055366;28;20020;-83
2022/10/22 10:32:52;;;;;;;3.30;1.10;;;;;;;15.31;86.63;99955.22;5054504;28;20029;-84
2022/10/22 10:35:35;;;;;;;5.93;1.27;;;;;;;15.33;86.47;99958.38;5054282;28;20021;-83
2022/10/22 10:38:07;;;;;;;3.03;1.02;;;;;;;15.40;86.67;99962.38;5041501;28;20087;-84
2022/10/22 10:40:50;;;;;;;4.50;1.02;;;;;;;15.46;86.26;99960.91;5053650;28;20021;-84
2022/10/22 10:43:24;;;;;;;3.17;1.10;;;;;;;15.46;85.74;99960.91;5054030;28;20033;-82
2022/10/22 10:46:14;;;;;;;2.30;0.80;;;;;;;15.43;85.27;99961.63;5054489;28;20032;-83
2022/10/22 10:48:58;;;;;;;2.45;0.80;;;;;;;15.45;84.95;99970.28;5053506;28;20393;-82
2022/10/22 10:51:51;;;;;;;7.00;1.25;;;;;;;15.46;85.13;99958.19;5053020;28;20047;-84
2022/10/22 10:54:31;;;;;;;3.83;0.70;;;;;;;15.48;83.86;99958.59;5054283;28;20032;-86
2022/10/22 10:57:01;;;;;;;3.15;0.80;;;;;;;15.49;83.84;99960.19;5052668;28;20032;-83
2022/10/22 10:59:51;;;;;;;3.53;1.27;;;;;;;15.53;83.61;99969.25;5055442;28;20047;-82
2022/10/22 11:02:57;;;;;;;1.67;0.50;;;;;;;15.51;83.44;99961.38;5054359;28;20051;-83
2022/10/22 11:05:50;;;;;;;2.05;0.80;;;;;;;15.56;82.18;99955.56;5054291;28;20036;-88
2022/10/22 11:08:30;;;;;;;2.97;0.90;;;;;;;15.56;82.05;99954.78;5053938;28;20500;-84
2022/10/22 11:11:02;;;;;;;8.65;1.40;;;;;;;15.58;81.87;99958.72;5046771;28;20124;-88
2022/10/22 11:13:37;;;;;;;2.95;0.80;;;;;;;15.61;81.73;99952.50;5053737;28;20045;-86
2022/10/22 11:16:13;;;;;;;5.95;1.20;;;;;;;15.67;81.68;99963.97;5053719;28;20119;-84
2022/10/22 11:18:54;;;;;;;3.83;0.70;;;;;;;15.71;81.28;99964.81;5053578;28;20040;-86
2022/10/22 11:21:31;;;;;;;3.15;0.70;;;;;;;15.69;81.24;99969.88;5053785;28;20029;-83
2022/10/22 11:24:27;;;;;;;6.47;0.97;;;;;;;15.67;81.28;99969.47;5053781;28;20528;-88
2022/10/22 11:26:59;;;;;;;2.67;0.52;;;;;;;15.77;80.87;99981.72;5053303;28;20029;-83
2022/10/22 11:29:38;;;;;;;4.68;0.80;;;;;;;15.71;80.31;99984.03;5052807;28;20020;-82
2022/10/22 11:32:09;;;;;;;2.67;0.60;;;;;;;15.73;80.79;99981.69;5051618;28;20033;-82
2022/10/22 11:34:48;;;;;;;3.65;1.00;;;;;;;15.77;80.53;99977.03;5052416;28;20036;-83
2022/10/22 11:37:14;;;;;;;1.90;0.50;;;;;;;15.82;80.72;99978.69;5036078;28;20507;-81
2022/10/22 11:39:41;;;;;;;;;;;;;;;15.80;80.61;99986.50;5052832;28;20087;-81
2022/10/22 11:42:37;;;;;;;;;;;;;;;15.86;80.62;99983.03;5052800;28;19915;-80
2022/10/22 11:45:25;;;;;;;2.97;0.70;;;;;;;15.86;79.63;99983.03;5051743;28;19912;-82
2022/10/22 11:47:56;;;;;;;3.35;0.82;;;;;;;15.87;79.58;99981.88;5034529;28;20051;-80
2022/10/22 11:50:27;;;;;;;3.50;0.80;;;;;;;15.82;79.17;99984.16;5052501;28;20060;-80
2022/10/22 11:53:04;;;;;;;4.13;1.33;;;;;;;15.80;79.20;99992.00;5034502;28;20025;-79
2022/10/22 11:55:47;;;;;;;2.67;0.75;;;;;;;15.76;79.45;99989.19;5052177;28;20027;-80
2022/10/22 11:58:28;;;;;;;2.53;0.70;;;;;;;15.71;79.83;99981.28;5052454;28;20039;-80